sensor_id;sensor_type;location;lat;lon;timestamp;P1;durP1;ratioP1;P2;durP2;ratioP2
42886;SDS011;29032;56.028;92.904;2023-08-08T00:00:16;11.32;;;8.45;;
42886;SDS011;29032;56.028;92.904;2023-08-08T00:05:20;10.70;;;8.25;;
42886;SDS011;29032;56.028;92.904;2023-08-08T00:10:22;10.43;;;7.63;;
42886;SDS011;29032;56.028;92.904;2023-08-08T00:15:24;14.50;;;9.00;;
42886;SDS011;29032;56.028;92.904;2023-08-08T00:20:27;12.52;;;8.80;;
42886;SDS011;29032;56.028;92.904;2023-08-08T00:25:30;13.18;;;9.57;;
42886;SDS011;29032;56.028;92.904;2023-08-08T00:30:32;16.27;;;9.18;;
42886;SDS011;29032;56.028;92.904;2023-08-08T00:35:35;15.55;;;9.38;;
42886;SDS011;29032;56.028;92.904;2023-08-08T00:40:38;14.05;;;8.85;;
42886;SDS011;29032;56.028;92.904;2023-08-08T00:45:40;10.50;;;7.55;;
42886;SDS011;29032;56.028;92.904;2023-08-08T00:50:46;10.80;;;7.53;;
42886;SDS011;29032;56.028;92.904;2023-08-08T00:55:51;9.65;;;7.43;;
42886;SDS011;29032;56.028;92.904;2023-08-08T01:00:54;10.77;;;7.60;;
42886;SDS011;29032;56.028;92.904;2023-08-08T01:05:59;10.27;;;7.75;;
42886;SDS011;29032;56.028;92.904;2023-08-08T01:11:07;11.20;;;6.88;;
42886;SDS011;29032;56.028;92.904;2023-08-08T01:16:09;11.23;;;7.30;;
42886;SDS011;29032;56.028;92.904;2023-08-08T01:21:14;10.48;;;7.07;;
42886;SDS011;29032;56.028;92.904;2023-08-08T01:26:19;13.38;;;7.22;;
42886;SDS011;29032;56.028;92.904;2023-08-08T01:31:22;12.20;;;6.85;;
42886;SDS011;29032;56.028;92.904;2023-08-08T01:36:27;9.20;;;6.72;;
42886;SDS011;29032;56.028;92.904;2023-08-08T01:41:34;12.20;;;6.85;;
42886;SDS011;29032;56.028;92.904;2023-08-08T01:46:40;10.73;;;7.03;;
42886;SDS011;29032;56.028;92.904;2023-08-08T01:51:43;9.20;;;6.25;;
42886;SDS011;29032;56.028;92.904;2023-08-08T01:56:46;7.35;;;5.82;;
42886;SDS011;29032;56.028;92.904;2023-08-08T02:01:48;8.70;;;5.70;;
42886;SDS011;29032;56.028;92.904;2023-08-08T02:06:50;8.43;;;5.75;;
42886;SDS011;29032;56.028;92.904;2023-08-08T02:11:54;10.68;;;5.95;;
42886;SDS011;29032;56.028;92.904;2023-08-08T02:16:56;6.53;;;5.82;;
42886;SDS011;29032;56.028;92.904;2023-08-08T02:21:58;10.25;;;8.75;;
42886;SDS011;29032;56.028;92.904;2023-08-08T02:27:01;7.65;;;6.35;;
42886;SDS011;29032;56.028;92.904;2023-08-08T02:32:05;7.95;;;5.55;;
42886;SDS011;29032;56.028;92.904;2023-08-08T02:37:07;9.90;;;6.03;;
42886;SDS011;29032;56.028;92.904;2023-08-08T02:42:11;7.53;;;5.25;;
42886;SDS011;29032;56.028;92.904;2023-08-08T02:47:13;7.82;;;5.65;;
42886;SDS011;29032;56.028;92.904;2023-08-08T02:52:15;7.28;;;5.35;;
42886;SDS011;29032;56.028;92.904;2023-08-08T02:57:19;8.57;;;6.30;;
42886;SDS011;29032;56.028;92.904;2023-08-08T03:02:21;8.65;;;5.90;;
42886;SDS011;29032;56.028;92.904;2023-08-08T03:07:24;6.38;;;5.43;;
42886;SDS011;29032;56.028;92.904;2023-08-08T03:12:27;6.32;;;5.28;;
42886;SDS011;29032;56.028;92.904;2023-08-08T03:17:30;14.35;;;5.50;;
42886;SDS011;29032;56.028;92.904;2023-08-08T03:22:32;8.50;;;5.47;;
42886;SDS011;29032;56.028;92.904;2023-08-08T03:27:36;11.10;;;5.60;;
42886;SDS011;29032;56.028;92.904;2023-08-08T03:32:39;11.63;;;7.20;;
42886;SDS011;29032;56.028;92.904;2023-08-08T03:37:42;17.52;;;10.40;;
42886;SDS011;29032;56.028;92.904;2023-08-08T03:42:45;16.35;;;11.60;;
42886;SDS011;29032;56.028;92.904;2023-08-08T03:47:47;13.05;;;7.93;;
42886;SDS011;29032;56.028;92.904;2023-08-08T03:52:49;9.80;;;6.47;;
42886;SDS011;29032;56.028;92.904;2023-08-08T03:57:53;9.02;;;6.32;;
42886;SDS011;29032;56.028;92.904;2023-08-08T04:02:56;7.43;;;6.10;;
42886;SDS011;29032;56.028;92.904;2023-08-08T04:07:58;11.30;;;6.03;;
42886;SDS011;29032;56.028;92.904;2023-08-08T04:13:01;8.45;;;5.45;;
42886;SDS011;29032;56.028;92.904;2023-08-08T04:18:04;8.57;;;5.50;;
42886;SDS011;29032;56.028;92.904;2023-08-08T04:23:06;8.75;;;5.40;;
42886;SDS011;29032;56.028;92.904;2023-08-08T04:28:09;7.10;;;4.80;;
42886;SDS011;29032;56.028;92.904;2023-08-08T04:33:11;5.97;;;4.20;;
42886;SDS011;29032;56.028;92.904;2023-08-08T04:38:14;5.35;;;3.92;;
42886;SDS011;29032;56.028;92.904;2023-08-08T04:43:17;6.32;;;4.15;;
42886;SDS011;29032;56.028;92.904;2023-08-08T04:48:19;5.55;;;4.38;;
42886;SDS011;29032;56.028;92.904;2023-08-08T04:53:21;4.85;;;3.97;;
42886;SDS011;29032;56.028;92.904;2023-08-08T04:58:25;6.20;;;4.47;;
42886;SDS011;29032;56.028;92.904;2023-08-08T05:03:27;7.80;;;4.43;;
42886;SDS011;29032;56.028;92.904;2023-08-08T05:08:42;6.68;;;4.97;;
42886;SDS011;29032;56.028;92.904;2023-08-08T05:13:51;5.10;;;4.57;;
42886;SDS011;29032;56.028;92.904;2023-08-08T05:18:54;6.82;;;4.57;;
42886;SDS011;29032;56.028;92.904;2023-08-08T05:23:56;7.28;;;5.05;;
42886;SDS011;29032;56.028;92.904;2023-08-08T05:28:59;7.13;;;4.75;;
42886;SDS011;29032;56.028;92.904;2023-08-08T05:34:01;10.93;;;5.32;;
42886;SDS011;29032;56.028;92.904;2023-08-08T05:39:03;8.05;;;5.68;;
42886;SDS011;29032;56.028;92.904;2023-08-08T05:44:07;7.13;;;4.57;;
42886;SDS011;29032;56.028;92.904;2023-08-08T05:49:09;7.70;;;5.57;;
42886;SDS011;29032;56.028;92.904;2023-08-08T05:54:11;7.75;;;5.05;;
42886;SDS011;29032;56.028;92.904;2023-08-08T05:59:14;6.70;;;5.18;;
42886;SDS011;29032;56.028;92.904;2023-08-08T06:04:16;6.07;;;4.35;;
42886;SDS011;29032;56.028;92.904;2023-08-08T06:09:19;8.40;;;4.60;;
42886;SDS011;29032;56.028;92.904;2023-08-08T06:14:22;6.50;;;4.65;;
42886;SDS011;29032;56.028;92.904;2023-08-08T06:19:24;6.97;;;4.70;;
42886;SDS011;29032;56.028;92.904;2023-08-08T06:24:26;6.85;;;4.57;;
42886;SDS011;29032;56.028;92.904;2023-08-08T06:29:30;10.13;;;4.78;;
42886;SDS011;29032;56.028;92.904;2023-08-08T06:34:32;6.82;;;4.43;;
42886;SDS011;29032;56.028;92.904;2023-08-08T06:39:34;14.40;;;4.28;;
42886;SDS011;29032;56.028;92.904;2023-08-08T06:44:42;7.32;;;4.35;;
42886;SDS011;29032;56.028;92.904;2023-08-08T06:49:45;5.40;;;3.83;;
42886;SDS011;29032;56.028;92.904;2023-08-08T06:54:47;6.47;;;3.83;;
42886;SDS011;29032;56.028;92.904;2023-08-08T06:59:50;3.90;;;3.58;;
42886;SDS011;29032;56.028;92.904;2023-08-08T07:04:52;6.13;;;3.80;;
42886;SDS011;29032;56.028;92.904;2023-08-08T07:09:54;4.45;;;3.67;;
42886;SDS011;29032;56.028;92.904;2023-08-08T07:14:58;4.22;;;3.00;;
42886;SDS011;29032;56.028;92.904;2023-08-08T07:20:00;5.03;;;3.78;;
42886;SDS011;29032;56.028;92.904;2023-08-08T07:25:03;5.00;;;3.65;;
42886;SDS011;29032;56.028;92.904;2023-08-08T07:30:07;6.22;;;3.05;;
42886;SDS011;29032;56.028;92.904;2023-08-08T07:35:10;5.13;;;3.95;;
42886;SDS011;29032;56.028;92.904;2023-08-08T07:40:15;3.63;;;3.20;;
42886;SDS011;29032;56.028;92.904;2023-08-08T07:45:20;5.07;;;3.65;;
42886;SDS011;29032;56.028;92.904;2023-08-08T07:50:22;3.70;;;3.40;;
42886;SDS011;29032;56.028;92.904;2023-08-08T07:55:27;4.90;;;3.45;;
42886;SDS011;29032;56.028;92.904;2023-08-08T08:00:31;5.75;;;3.65;;
42886;SDS011;29032;56.028;92.904;2023-08-08T08:05:34;5.03;;;3.28;;
42886;SDS011;29032;56.028;92.904;2023-08-08T08:10:36;5.47;;;3.35;;
42886;SDS011;29032;56.028;92.904;2023-08-08T08:15:40;4.22;;;3.70;;
42886;SDS011;29032;56.028;92.904;2023-08-08T08:20:42;5.85;;;3.83;;
42886;SDS011;29032;56.028;92.904;2023-08-08T08:25:45;4.30;;;3.90;;
42886;SDS011;29032;56.028;92.904;2023-08-08T08:30:49;6.35;;;3.80;;
42886;SDS011;29032;56.028;92.904;2023-08-08T08:35:51;7.40;;;3.65;;
42886;SDS011;29032;56.028;92.904;2023-08-08T08:40:56;5.82;;;3.80;;
42886;SDS011;29032;56.028;92.904;2023-08-08T08:46:00;4.43;;;4.00;;
42886;SDS011;29032;56.028;92.904;2023-08-08T08:56:06;4.28;;;3.75;;
42886;SDS011;29032;56.028;92.904;2023-08-08T09:01:10;5.20;;;3.50;;
42886;SDS011;29032;56.028;92.904;2023-08-08T09:06:12;4.57;;;3.80;;
42886;SDS011;29032;56.028;92.904;2023-08-08T09:11:16;4.75;;;3.22;;
42886;SDS011;29032;56.028;92.904;2023-08-08T09:16:23;5.15;;;3.70;;
42886;SDS011;29032;56.028;92.904;2023-08-08T09:21:25;5.30;;;3.47;;
42886;SDS011;29032;56.028;92.904;2023-08-08T09:26:28;8.63;;;3.97;;
42886;SDS011;29032;56.028;92.904;2023-08-08T09:31:33;8.23;;;3.85;;
42886;SDS011;29032;56.028;92.904;2023-08-08T09:36:38;4.20;;;3.30;;
42886;SDS011;29032;56.028;92.904;2023-08-08T09:41:45;6.00;;;3.65;;
42886;SDS011;29032;56.028;92.904;2023-08-08T09:46:49;5.83;;;3.37;;
42886;SDS011;29032;56.028;92.904;2023-08-08T09:51:52;4.27;;;3.63;;
42886;SDS011;29032;56.028;92.904;2023-08-08T09:56:55;3.58;;;3.25;;
42886;SDS011;29032;56.028;92.904;2023-08-08T10:01:59;4.90;;;3.38;;
42886;SDS011;29032;56.028;92.904;2023-08-08T10:07:02;7.88;;;3.75;;
42886;SDS011;29032;56.028;92.904;2023-08-08T10:12:07;5.90;;;3.40;;
42886;SDS011;29032;56.028;92.904;2023-08-08T10:17:14;3.53;;;3.15;;
42886;SDS011;29032;56.028;92.904;2023-08-08T10:22:19;9.85;;;3.70;;
42886;SDS011;29032;56.028;92.904;2023-08-08T10:27:30;5.55;;;3.20;;
42886;SDS011;29032;56.028;92.904;2023-08-08T10:32:41;5.95;;;3.25;;
42886;SDS011;29032;56.028;92.904;2023-08-08T10:37:51;3.50;;;3.10;;
42886;SDS011;29032;56.028;92.904;2023-08-08T10:42:54;6.88;;;3.42;;
42886;SDS011;29032;56.028;92.904;2023-08-08T10:48:06;3.78;;;3.40;;
42886;SDS011;29032;56.028;92.904;2023-08-08T10:53:09;4.75;;;3.50;;
42886;SDS011;29032;56.028;92.904;2023-08-08T10:58:12;12.02;;;4.40;;
42886;SDS011;29032;56.028;92.904;2023-08-08T11:03:16;9.40;;;3.72;;
42886;SDS011;29032;56.028;92.904;2023-08-08T11:08:19;7.00;;;3.58;;
42886;SDS011;29032;56.028;92.904;2023-08-08T11:13:21;5.80;;;3.55;;
42886;SDS011;29032;56.028;92.904;2023-08-08T11:18:25;5.55;;;3.70;;
42886;SDS011;29032;56.028;92.904;2023-08-08T11:23:27;5.55;;;4.65;;
42886;SDS011;29032;56.028;92.904;2023-08-08T11:28:29;5.53;;;4.72;;
42886;SDS011;29032;56.028;92.904;2023-08-08T11:33:32;5.95;;;4.30;;
42886;SDS011;29032;56.028;92.904;2023-08-08T11:38:34;7.43;;;3.85;;
42886;SDS011;29032;56.028;92.904;2023-08-08T11:43:36;7.00;;;4.18;;
42886;SDS011;29032;56.028;92.904;2023-08-08T11:48:41;4.50;;;3.47;;
42886;SDS011;29032;56.028;92.904;2023-08-08T11:53:49;3.92;;;3.50;;
42886;SDS011;29032;56.028;92.904;2023-08-08T11:58:52;7.40;;;4.15;;
42886;SDS011;29032;56.028;92.904;2023-08-08T12:03:57;5.80;;;3.90;;
42886;SDS011;29032;56.028;92.904;2023-08-08T12:09:00;6.75;;;4.30;;
42886;SDS011;29032;56.028;92.904;2023-08-08T12:14:04;5.95;;;4.13;;
42886;SDS011;29032;56.028;92.904;2023-08-08T12:19:10;5.10;;;3.97;;
42886;SDS011;29032;56.028;92.904;2023-08-08T12:24:12;5.97;;;3.70;;
42886;SDS011;29032;56.028;92.904;2023-08-08T12:29:14;5.40;;;4.22;;
42886;SDS011;29032;56.028;92.904;2023-08-08T12:34:17;36.65;;;7.05;;
42886;SDS011;29032;56.028;92.904;2023-08-08T12:39:19;10.80;;;4.43;;
42886;SDS011;29032;56.028;92.904;2023-08-08T12:44:21;12.00;;;4.03;;
42886;SDS011;29032;56.028;92.904;2023-08-08T12:49:25;5.72;;;4.15;;
42886;SDS011;29032;56.028;92.904;2023-08-08T12:54:27;6.05;;;3.70;;
42886;SDS011;29032;56.028;92.904;2023-08-08T12:59:30;4.65;;;3.47;;
42886;SDS011;29032;56.028;92.904;2023-08-08T13:04:33;6.20;;;3.97;;
42886;SDS011;29032;56.028;92.904;2023-08-08T13:09:35;5.88;;;4.13;;
42886;SDS011;29032;56.028;92.904;2023-08-08T13:14:37;6.70;;;3.95;;
42886;SDS011;29032;56.028;92.904;2023-08-08T13:19:41;4.18;;;3.67;;
42886;SDS011;29032;56.028;92.904;2023-08-08T13:24:43;4.18;;;3.78;;
42886;SDS011;29032;56.028;92.904;2023-08-08T13:29:45;6.80;;;4.90;;
42886;SDS011;29032;56.028;92.904;2023-08-08T13:34:48;9.35;;;5.38;;
42886;SDS011;29032;56.028;92.904;2023-08-08T13:39:50;10.00;;;5.80;;
42886;SDS011;29032;56.028;92.904;2023-08-08T13:44:52;10.35;;;5.50;;
42886;SDS011;29032;56.028;92.904;2023-08-08T13:49:56;9.98;;;5.93;;
42886;SDS011;29032;56.028;92.904;2023-08-08T13:54:58;10.13;;;5.78;;
42886;SDS011;29032;56.028;92.904;2023-08-08T14:00:00;11.27;;;6.53;;
42886;SDS011;29032;56.028;92.904;2023-08-08T14:05:10;8.95;;;5.75;;
42886;SDS011;29032;56.028;92.904;2023-08-08T14:10:12;12.63;;;7.25;;
42886;SDS011;29032;56.028;92.904;2023-08-08T14:15:14;8.60;;;6.55;;
42886;SDS011;29032;56.028;92.904;2023-08-08T14:20:17;12.93;;;6.88;;
42886;SDS011;29032;56.028;92.904;2023-08-08T14:25:20;9.15;;;6.40;;
42886;SDS011;29032;56.028;92.904;2023-08-08T14:30:22;10.52;;;6.75;;
42886;SDS011;29032;56.028;92.904;2023-08-08T14:35:25;13.68;;;8.68;;
42886;SDS011;29032;56.028;92.904;2023-08-08T14:40:27;8.02;;;6.15;;
42886;SDS011;29032;56.028;92.904;2023-08-08T14:45:29;11.70;;;6.72;;
42886;SDS011;29032;56.028;92.904;2023-08-08T14:50:33;8.40;;;6.15;;
42886;SDS011;29032;56.028;92.904;2023-08-08T14:55:35;7.93;;;6.60;;
42886;SDS011;29032;56.028;92.904;2023-08-08T15:00:37;9.00;;;6.50;;
42886;SDS011;29032;56.028;92.904;2023-08-08T15:05:41;8.77;;;6.63;;
42886;SDS011;29032;56.028;92.904;2023-08-08T15:10:43;11.63;;;7.05;;
42886;SDS011;29032;56.028;92.904;2023-08-08T15:15:45;7.70;;;6.22;;
42886;SDS011;29032;56.028;92.904;2023-08-08T15:20:48;10.18;;;6.93;;
42886;SDS011;29032;56.028;92.904;2023-08-08T15:25:50;10.50;;;7.57;;
42886;SDS011;29032;56.028;92.904;2023-08-08T15:30:53;9.45;;;7.65;;
42886;SDS011;29032;56.028;92.904;2023-08-08T15:35:56;8.85;;;7.30;;
42886;SDS011;29032;56.028;92.904;2023-08-08T15:40:58;10.70;;;7.38;;
42886;SDS011;29032;56.028;92.904;2023-08-08T15:46:00;9.73;;;7.15;;
42886;SDS011;29032;56.028;92.904;2023-08-08T15:51:04;9.23;;;7.50;;
42886;SDS011;29032;56.028;92.904;2023-08-08T15:56:06;7.10;;;6.40;;
42886;SDS011;29032;56.028;92.904;2023-08-08T16:01:08;9.88;;;7.00;;
42886;SDS011;29032;56.028;92.904;2023-08-08T16:06:11;7.40;;;6.40;;
42886;SDS011;29032;56.028;92.904;2023-08-08T16:11:13;7.93;;;6.60;;
42886;SDS011;29032;56.028;92.904;2023-08-08T16:16:15;11.93;;;7.50;;
42886;SDS011;29032;56.028;92.904;2023-08-08T16:21:19;9.48;;;7.38;;
42886;SDS011;29032;56.028;92.904;2023-08-08T16:26:21;10.10;;;7.15;;
42886;SDS011;29032;56.028;92.904;2023-08-08T16:31:23;10.05;;;6.82;;
42886;SDS011;29032;56.028;92.904;2023-08-08T16:36:26;12.55;;;8.93;;
42886;SDS011;29032;56.028;92.904;2023-08-08T16:41:28;13.15;;;9.50;;
42886;SDS011;29032;56.028;92.904;2023-08-08T16:46:30;15.80;;;10.35;;
42886;SDS011;29032;56.028;92.904;2023-08-08T16:51:34;15.82;;;9.10;;
42886;SDS011;29032;56.028;92.904;2023-08-08T16:56:36;14.07;;;9.27;;
42886;SDS011;29032;56.028;92.904;2023-08-08T17:01:38;14.18;;;9.10;;
42886;SDS011;29032;56.028;92.904;2023-08-08T17:06:42;11.13;;;8.52;;
42886;SDS011;29032;56.028;92.904;2023-08-08T17:11:44;12.02;;;8.27;;
42886;SDS011;29032;56.028;92.904;2023-08-08T17:16:46;10.68;;;8.23;;
42886;SDS011;29032;56.028;92.904;2023-08-08T17:21:49;11.68;;;8.52;;
42886;SDS011;29032;56.028;92.904;2023-08-08T17:26:51;11.30;;;8.20;;
42886;SDS011;29032;56.028;92.904;2023-08-08T17:31:53;11.07;;;8.18;;
42886;SDS011;29032;56.028;92.904;2023-08-08T17:36:57;11.73;;;8.82;;
42886;SDS011;29032;56.028;92.904;2023-08-08T17:41:59;11.20;;;9.25;;
42886;SDS011;29032;56.028;92.904;2023-08-08T17:47:01;15.35;;;9.63;;
42886;SDS011;29032;56.028;92.904;2023-08-08T17:52:04;13.50;;;8.80;;
42886;SDS011;29032;56.028;92.904;2023-08-08T17:57:06;11.93;;;8.85;;
42886;SDS011;29032;56.028;92.904;2023-08-08T18:02:08;14.88;;;9.63;;
42886;SDS011;29032;56.028;92.904;2023-08-08T18:07:12;11.63;;;8.88;;
42886;SDS011;29032;56.028;92.904;2023-08-08T18:12:14;13.52;;;9.80;;
42886;SDS011;29032;56.028;92.904;2023-08-08T18:17:16;12.27;;;9.48;;
42886;SDS011;29032;56.028;92.904;2023-08-08T18:22:19;9.52;;;7.72;;
42886;SDS011;29032;56.028;92.904;2023-08-08T18:27:21;9.23;;;7.45;;
42886;SDS011;29032;56.028;92.904;2023-08-08T18:32:23;9.80;;;7.05;;
42886;SDS011;29032;56.028;92.904;2023-08-08T18:37:27;9.40;;;6.97;;
42886;SDS011;29032;56.028;92.904;2023-08-08T18:42:29;9.20;;;6.60;;
42886;SDS011;29032;56.028;92.904;2023-08-08T18:47:31;8.82;;;7.00;;
42886;SDS011;29032;56.028;92.904;2023-08-08T18:52:34;7.05;;;6.35;;
42886;SDS011;29032;56.028;92.904;2023-08-08T18:57:36;11.85;;;7.80;;
42886;SDS011;29032;56.028;92.904;2023-08-08T19:02:38;11.98;;;8.63;;
42886;SDS011;29032;56.028;92.904;2023-08-08T19:07:41;10.18;;;8.07;;
42886;SDS011;29032;56.028;92.904;2023-08-08T19:12:43;8.25;;;7.28;;
42886;SDS011;29032;56.028;92.904;2023-08-08T19:17:46;7.75;;;6.80;;
42886;SDS011;29032;56.028;92.904;2023-08-08T19:22:49;8.05;;;7.03;;
42886;SDS011;29032;56.028;92.904;2023-08-08T19:27:51;7.40;;;6.68;;
42886;SDS011;29032;56.028;92.904;2023-08-08T19:32:53;7.90;;;6.85;;
42886;SDS011;29032;56.028;92.904;2023-08-08T19:37:56;9.50;;;7.13;;
42886;SDS011;29032;56.028;92.904;2023-08-08T19:42:58;7.32;;;6.63;;
42886;SDS011;29032;56.028;92.904;2023-08-08T19:48:00;8.02;;;7.22;;
42886;SDS011;29032;56.028;92.904;2023-08-08T19:53:03;7.80;;;6.95;;
42886;SDS011;29032;56.028;92.904;2023-08-08T19:58:05;8.70;;;7.80;;
42886;SDS011;29032;56.028;92.904;2023-08-08T20:03:07;8.45;;;7.65;;
42886;SDS011;29032;56.028;92.904;2023-08-08T20:08:11;8.45;;;7.30;;
42886;SDS011;29032;56.028;92.904;2023-08-08T20:13:13;8.68;;;7.65;;
42886;SDS011;29032;56.028;92.904;2023-08-08T20:18:15;7.95;;;7.13;;
42886;SDS011;29032;56.028;92.904;2023-08-08T20:23:18;9.32;;;7.78;;
42886;SDS011;29032;56.028;92.904;2023-08-08T20:28:20;8.65;;;7.35;;
42886;SDS011;29032;56.028;92.904;2023-08-08T20:33:22;7.63;;;6.82;;
42886;SDS011;29032;56.028;92.904;2023-08-08T20:38:26;9.82;;;7.10;;
42886;SDS011;29032;56.028;92.904;2023-08-08T20:43:28;8.27;;;7.35;;
42886;SDS011;29032;56.028;92.904;2023-08-08T20:48:29;8.13;;;7.32;;
42886;SDS011;29032;56.028;92.904;2023-08-08T20:53:33;8.65;;;7.13;;
42886;SDS011;29032;56.028;92.904;2023-08-08T20:58:35;8.23;;;7.22;;
42886;SDS011;29032;56.028;92.904;2023-08-08T21:03:37;7.78;;;6.93;;
42886;SDS011;29032;56.028;92.904;2023-08-08T21:08:41;8.35;;;7.45;;
42886;SDS011;29032;56.028;92.904;2023-08-08T21:13:43;8.00;;;6.72;;
42886;SDS011;29032;56.028;92.904;2023-08-08T21:18:45;8.43;;;7.60;;
42886;SDS011;29032;56.028;92.904;2023-08-08T21:23:48;8.57;;;7.40;;
42886;SDS011;29032;56.028;92.904;2023-08-08T21:28:50;7.82;;;7.03;;
42886;SDS011;29032;56.028;92.904;2023-08-08T21:33:52;7.93;;;6.78;;
42886;SDS011;29032;56.028;92.904;2023-08-08T21:38:56;7.70;;;6.93;;
42886;SDS011;29032;56.028;92.904;2023-08-08T21:43:58;8.32;;;7.57;;
42886;SDS011;29032;56.028;92.904;2023-08-08T21:49:00;9.48;;;6.97;;
42886;SDS011;29032;56.028;92.904;2023-08-08T21:54:04;9.20;;;7.35;;
42886;SDS011;29032;56.028;92.904;2023-08-08T21:59:06;10.70;;;7.93;;
42886;SDS011;29032;56.028;92.904;2023-08-08T22:04:08;9.85;;;7.38;;
42886;SDS011;29032;56.028;92.904;2023-08-08T22:09:12;8.20;;;7.22;;
42886;SDS011;29032;56.028;92.904;2023-08-08T22:14:14;10.30;;;7.57;;
42886;SDS011;29032;56.028;92.904;2023-08-08T22:19:16;9.00;;;6.82;;
42886;SDS011;29032;56.028;92.904;2023-08-08T22:24:20;10.77;;;7.25;;
42886;SDS011;29032;56.028;92.904;2023-08-08T22:29:22;8.93;;;7.57;;
42886;SDS011;29032;56.028;92.904;2023-08-08T22:34:23;9.20;;;8.05;;
42886;SDS011;29032;56.028;92.904;2023-08-08T22:39:27;8.77;;;7.00;;
42886;SDS011;29032;56.028;92.904;2023-08-08T22:44:29;8.98;;;7.88;;
42886;SDS011;29032;56.028;92.904;2023-08-08T22:49:31;11.52;;;7.60;;
42886;SDS011;29032;56.028;92.904;2023-08-08T22:54:34;9.05;;;7.60;;
42886;SDS011;29032;56.028;92.904;2023-08-08T22:59:36;11.20;;;9.02;;
42886;SDS011;29032;56.028;92.904;2023-08-08T23:04:38;15.25;;;8.73;;
42886;SDS011;29032;56.028;92.904;2023-08-08T23:09:42;10.18;;;8.10;;
42886;SDS011;29032;56.028;92.904;2023-08-08T23:14:44;9.07;;;8.10;;
42886;SDS011;29032;56.028;92.904;2023-08-08T23:19:46;12.88;;;8.30;;
42886;SDS011;29032;56.028;92.904;2023-08-08T23:24:49;12.75;;;8.43;;
42886;SDS011;29032;56.028;92.904;2023-08-08T23:29:51;9.23;;;7.97;;
42886;SDS011;29032;56.028;92.904;2023-08-08T23:34:53;9.55;;;7.82;;
42886;SDS011;29032;56.028;92.904;2023-08-08T23:39:56;10.35;;;7.80;;
42886;SDS011;29032;56.028;92.904;2023-08-08T23:44:58;9.07;;;8.02;;
42886;SDS011;29032;56.028;92.904;2023-08-08T23:50:00;11.27;;;7.35;;
42886;SDS011;29032;56.028;92.904;2023-08-08T23:55:04;10.32;;;8.25;;
